sensor_id;sensor_type;location;lat;lon;timestamp;temperature;humidity
33841;DHT22;20142;28.494;-16.312;2023-03-01T00:01:24;16.50;88.40
33841;DHT22;20142;28.494;-16.312;2023-03-01T00:06:27;16.50;88.30
33841;DHT22;20142;28.494;-16.312;2023-03-01T00:11:32;16.50;88.10
33841;DHT22;20142;28.494;-16.312;2023-03-01T00:16:37;16.40;88.30
33841;DHT22;20142;28.494;-16.312;2023-03-01T00:21:43;16.30;88.40
33841;DHT22;20142;28.494;-16.312;2023-03-01T00:26:44;16.30;88.30
33841;DHT22;20142;28.494;-16.312;2023-03-01T00:31:47;16.30;88.60
33841;DHT22;20142;28.494;-16.312;2023-03-01T00:36:49;16.30;88.40
33841;DHT22;20142;28.494;-16.312;2023-03-01T00:41:50;16.30;88.50
33841;DHT22;20142;28.494;-16.312;2023-03-01T00:46:52;16.40;88.70
33841;DHT22;20142;28.494;-16.312;2023-03-01T00:51:54;16.40;88.70
33841;DHT22;20142;28.494;-16.312;2023-03-01T00:56:55;16.30;88.60
33841;DHT22;20142;28.494;-16.312;2023-03-01T01:01:57;16.40;88.90
33841;DHT22;20142;28.494;-16.312;2023-03-01T01:07:00;16.30;88.50
33841;DHT22;20142;28.494;-16.312;2023-03-01T01:12:01;16.40;88.80
33841;DHT22;20142;28.494;-16.312;2023-03-01T01:17:04;16.30;88.70
33841;DHT22;20142;28.494;-16.312;2023-03-01T01:22:06;16.30;89.10
33841;DHT22;20142;28.494;-16.312;2023-03-01T01:27:07;16.30;89.00
33841;DHT22;20142;28.494;-16.312;2023-03-01T01:32:09;16.20;89.30
33841;DHT22;20142;28.494;-16.312;2023-03-01T01:37:11;16.20;89.70
33841;DHT22;20142;28.494;-16.312;2023-03-01T01:42:17;16.20;89.90
33841;DHT22;20142;28.494;-16.312;2023-03-01T01:47:21;16.20;90.20
33841;DHT22;20142;28.494;-16.312;2023-03-01T01:52:29;16.20;90.60
33841;DHT22;20142;28.494;-16.312;2023-03-01T01:57:43;16.20;90.70
33841;DHT22;20142;28.494;-16.312;2023-03-01T02:02:49;16.10;91.10
33841;DHT22;20142;28.494;-16.312;2023-03-01T02:07:57;16.20;91.10
33841;DHT22;20142;28.494;-16.312;2023-03-01T02:13:00;16.30;91.60
33841;DHT22;20142;28.494;-16.312;2023-03-01T02:18:05;16.30;91.70
33841;DHT22;20142;28.494;-16.312;2023-03-01T02:23:08;16.30;92.10
33841;DHT22;20142;28.494;-16.312;2023-03-01T02:33:17;16.20;92.40
33841;DHT22;20142;28.494;-16.312;2023-03-01T02:38:19;16.20;92.40
33841;DHT22;20142;28.494;-16.312;2023-03-01T02:43:24;16.20;92.50
33841;DHT22;20142;28.494;-16.312;2023-03-01T02:48:43;15.90;92.50
33841;DHT22;20142;28.494;-16.312;2023-03-01T02:59:32;15.80;92.60
33841;DHT22;20142;28.494;-16.312;2023-03-01T03:04:41;15.70;92.90
33841;DHT22;20142;28.494;-16.312;2023-03-01T03:09:42;15.80;93.30
33841;DHT22;20142;28.494;-16.312;2023-03-01T03:14:44;15.60;93.20
33841;DHT22;20142;28.494;-16.312;2023-03-01T03:19:45;15.70;93.20
33841;DHT22;20142;28.494;-16.312;2023-03-01T03:24:47;15.70;93.20
33841;DHT22;20142;28.494;-16.312;2023-03-01T03:29:49;15.70;93.20
33841;DHT22;20142;28.494;-16.312;2023-03-01T03:34:50;15.80;93.30
33841;DHT22;20142;28.494;-16.312;2023-03-01T03:39:52;15.90;92.80
33841;DHT22;20142;28.494;-16.312;2023-03-01T03:44:55;16.00;92.50
33841;DHT22;20142;28.494;-16.312;2023-03-01T03:49:57;16.00;92.40
33841;DHT22;20142;28.494;-16.312;2023-03-01T03:54:59;16.00;92.10
33841;DHT22;20142;28.494;-16.312;2023-03-01T04:00:00;16.00;92.00
33841;DHT22;20142;28.494;-16.312;2023-03-01T04:05:06;15.80;92.20
33841;DHT22;20142;28.494;-16.312;2023-03-01T04:10:12;15.70;92.70
33841;DHT22;20142;28.494;-16.312;2023-03-01T04:15:15;15.60;92.50
33841;DHT22;20142;28.494;-16.312;2023-03-01T04:20:24;15.60;92.90
33841;DHT22;20142;28.494;-16.312;2023-03-01T04:25:29;15.60;93.30
33841;DHT22;20142;28.494;-16.312;2023-03-01T04:30:31;15.50;93.50
33841;DHT22;20142;28.494;-16.312;2023-03-01T04:35:37;15.70;93.50
33841;DHT22;20142;28.494;-16.312;2023-03-01T04:40:39;15.70;93.40
33841;DHT22;20142;28.494;-16.312;2023-03-01T04:45:43;15.90;93.00
33841;DHT22;20142;28.494;-16.312;2023-03-01T04:50:45;15.90;92.60
33841;DHT22;20142;28.494;-16.312;2023-03-01T04:55:46;15.80;92.90
33841;DHT22;20142;28.494;-16.312;2023-03-01T05:00:48;15.80;92.90
33841;DHT22;20142;28.494;-16.312;2023-03-01T05:05:51;15.80;92.90
33841;DHT22;20142;28.494;-16.312;2023-03-01T05:10:54;15.90;92.70
33841;DHT22;20142;28.494;-16.312;2023-03-01T05:16:00;15.80;92.30
33841;DHT22;20142;28.494;-16.312;2023-03-01T05:21:07;15.80;92.30
33841;DHT22;20142;28.494;-16.312;2023-03-01T05:26:10;15.90;92.70
33841;DHT22;20142;28.494;-16.312;2023-03-01T05:31:13;15.80;92.50
33841;DHT22;20142;28.494;-16.312;2023-03-01T05:36:15;15.90;92.80
33841;DHT22;20142;28.494;-16.312;2023-03-01T05:41:17;15.90;93.20
33841;DHT22;20142;28.494;-16.312;2023-03-01T05:46:18;15.90;93.30
33841;DHT22;20142;28.494;-16.312;2023-03-01T05:51:20;15.90;93.60
33841;DHT22;20142;28.494;-16.312;2023-03-01T05:56:23;15.90;93.60
33841;DHT22;20142;28.494;-16.312;2023-03-01T06:01:24;15.90;93.70
33841;DHT22;20142;28.494;-16.312;2023-03-01T06:06:26;15.90;93.70
33841;DHT22;20142;28.494;-16.312;2023-03-01T06:11:28;15.90;93.40
33841;DHT22;20142;28.494;-16.312;2023-03-01T06:16:30;15.90;93.30
33841;DHT22;20142;28.494;-16.312;2023-03-01T06:21:32;15.90;93.50
33841;DHT22;20142;28.494;-16.312;2023-03-01T06:26:33;15.90;93.70
33841;DHT22;20142;28.494;-16.312;2023-03-01T06:31:35;15.90;93.70
33841;DHT22;20142;28.494;-16.312;2023-03-01T06:36:37;15.90;93.60
33841;DHT22;20142;28.494;-16.312;2023-03-01T06:41:38;15.90;93.40
33841;DHT22;20142;28.494;-16.312;2023-03-01T06:46:40;16.00;93.10
33841;DHT22;20142;28.494;-16.312;2023-03-01T06:51:42;16.00;93.50
33841;DHT22;20142;28.494;-16.312;2023-03-01T06:56:46;16.00;93.60
33841;DHT22;20142;28.494;-16.312;2023-03-01T07:01:48;16.00;93.40
33841;DHT22;20142;28.494;-16.312;2023-03-01T07:06:50;16.00;92.90
33841;DHT22;20142;28.494;-16.312;2023-03-01T07:11:56;15.90;92.90
33841;DHT22;20142;28.494;-16.312;2023-03-01T07:16:58;15.90;92.80
33841;DHT22;20142;28.494;-16.312;2023-03-01T07:21:59;15.80;92.60
33841;DHT22;20142;28.494;-16.312;2023-03-01T07:27:01;15.80;92.50
33841;DHT22;20142;28.494;-16.312;2023-03-01T07:32:04;15.70;92.30
33841;DHT22;20142;28.494;-16.312;2023-03-01T07:37:06;15.70;92.10
33841;DHT22;20142;28.494;-16.312;2023-03-01T07:42:08;15.80;92.10
33841;DHT22;20142;28.494;-16.312;2023-03-01T07:47:10;15.90;91.50
33841;DHT22;20142;28.494;-16.312;2023-03-01T07:52:11;15.90;91.10
33841;DHT22;20142;28.494;-16.312;2023-03-01T07:57:13;15.90;91.00
33841;DHT22;20142;28.494;-16.312;2023-03-01T08:02:15;16.00;91.10
33841;DHT22;20142;28.494;-16.312;2023-03-01T08:07:16;16.00;91.00
33841;DHT22;20142;28.494;-16.312;2023-03-01T08:12:18;16.00;91.00
33841;DHT22;20142;28.494;-16.312;2023-03-01T08:17:20;16.20;91.10
33841;DHT22;20142;28.494;-16.312;2023-03-01T08:22:22;16.30;91.00
33841;DHT22;20142;28.494;-16.312;2023-03-01T08:27:23;16.60;91.00
33841;DHT22;20142;28.494;-16.312;2023-03-01T08:32:25;16.70;90.20
33841;DHT22;20142;28.494;-16.312;2023-03-01T08:37:27;16.90;89.60
33841;DHT22;20142;28.494;-16.312;2023-03-01T08:42:32;17.00;89.90
33841;DHT22;20142;28.494;-16.312;2023-03-01T08:47:34;17.10;89.40
33841;DHT22;20142;28.494;-16.312;2023-03-01T08:52:36;17.30;88.60
33841;DHT22;20142;28.494;-16.312;2023-03-01T08:57:37;17.60;88.40
33841;DHT22;20142;28.494;-16.312;2023-03-01T09:02:39;17.90;87.90
33841;DHT22;20142;28.494;-16.312;2023-03-01T09:07:41;17.90;88.10
33841;DHT22;20142;28.494;-16.312;2023-03-01T09:12:42;18.10;88.00
33841;DHT22;20142;28.494;-16.312;2023-03-01T09:17:44;18.40;87.20
33841;DHT22;20142;28.494;-16.312;2023-03-01T09:22:46;18.20;86.90
33841;DHT22;20142;28.494;-16.312;2023-03-01T09:27:50;18.60;86.90
33841;DHT22;20142;28.494;-16.312;2023-03-01T09:32:52;18.60;85.90
33841;DHT22;20142;28.494;-16.312;2023-03-01T09:37:54;18.70;86.60
33841;DHT22;20142;28.494;-16.312;2023-03-01T09:43:08;18.90;86.00
33841;DHT22;20142;28.494;-16.312;2023-03-01T09:48:19;18.90;86.10
33841;DHT22;20142;28.494;-16.312;2023-03-01T09:53:32;18.80;85.50
33841;DHT22;20142;28.494;-16.312;2023-03-01T10:04:25;19.10;85.60
33841;DHT22;20142;28.494;-16.312;2023-03-01T10:09:39;19.30;85.70
33841;DHT22;20142;28.494;-16.312;2023-03-01T10:15:05;19.50;84.90
33841;DHT22;20142;28.494;-16.312;2023-03-01T10:30:40;20.00;84.30
33841;DHT22;20142;28.494;-16.312;2023-03-01T10:35:44;20.30;84.50
33841;DHT22;20142;28.494;-16.312;2023-03-01T10:41:06;20.70;84.10
33841;DHT22;20142;28.494;-16.312;2023-03-01T10:51:32;20.40;83.30
33841;DHT22;20142;28.494;-16.312;2023-03-01T10:56:50;20.50;82.40
33841;DHT22;20142;28.494;-16.312;2023-03-01T11:02:17;20.70;83.20
33841;DHT22;20142;28.494;-16.312;2023-03-01T11:07:23;21.00;82.30
33841;DHT22;20142;28.494;-16.312;2023-03-01T11:12:25;20.80;82.10
33841;DHT22;20142;28.494;-16.312;2023-03-01T11:17:31;20.70;81.90
33841;DHT22;20142;28.494;-16.312;2023-03-01T11:22:35;21.20;81.70
33841;DHT22;20142;28.494;-16.312;2023-03-01T11:27:43;21.60;80.20
33841;DHT22;20142;28.494;-16.312;2023-03-01T11:32:47;21.60;80.40
33841;DHT22;20142;28.494;-16.312;2023-03-01T11:38:03;21.90;79.90
33841;DHT22;20142;28.494;-16.312;2023-03-01T11:43:35;21.80;79.10
33841;DHT22;20142;28.494;-16.312;2023-03-01T12:21:30;21.60;76.90
33841;DHT22;20142;28.494;-16.312;2023-03-01T12:37:45;21.50;76.90
33841;DHT22;20142;28.494;-16.312;2023-03-01T12:43:27;21.70;76.90
33841;DHT22;20142;28.494;-16.312;2023-03-01T12:49:02;22.00;76.50
33841;DHT22;20142;28.494;-16.312;2023-03-01T12:54:27;21.80;76.40
33841;DHT22;20142;28.494;-16.312;2023-03-01T13:15:45;22.30;75.10
33841;DHT22;20142;28.494;-16.312;2023-03-01T13:21:06;23.00;75.90
33841;DHT22;20142;28.494;-16.312;2023-03-01T13:26:09;23.10;74.90
33841;DHT22;20142;28.494;-16.312;2023-03-01T13:46:45;22.80;73.50
33841;DHT22;20142;28.494;-16.312;2023-03-01T13:51:48;22.30;74.30
33841;DHT22;20142;28.494;-16.312;2023-03-01T13:56:50;22.30;75.80
33841;DHT22;20142;28.494;-16.312;2023-03-01T14:01:57;22.30;75.70
33841;DHT22;20142;28.494;-16.312;2023-03-01T14:17:44;23.10;73.40
33841;DHT22;20142;28.494;-16.312;2023-03-01T14:22:57;22.90;74.30
33841;DHT22;20142;28.494;-16.312;2023-03-01T14:28:04;23.30;74.80
33841;DHT22;20142;28.494;-16.312;2023-03-01T14:33:23;22.90;73.90
33841;DHT22;20142;28.494;-16.312;2023-03-01T14:38:46;22.90;73.70
33841;DHT22;20142;28.494;-16.312;2023-03-01T14:44:03;22.90;73.50
33841;DHT22;20142;28.494;-16.312;2023-03-01T14:49:19;23.30;73.60
33841;DHT22;20142;28.494;-16.312;2023-03-01T14:59:44;23.70;72.70
33841;DHT22;20142;28.494;-16.312;2023-03-01T15:04:49;22.40;74.90
33841;DHT22;20142;28.494;-16.312;2023-03-01T15:09:58;23.10;74.60
33841;DHT22;20142;28.494;-16.312;2023-03-01T15:15:01;25.00;72.80
33841;DHT22;20142;28.494;-16.312;2023-03-01T15:20:24;23.60;72.80
33841;DHT22;20142;28.494;-16.312;2023-03-01T15:25:28;28.20;66.40
33841;DHT22;20142;28.494;-16.312;2023-03-01T15:30:35;28.60;64.00
33841;DHT22;20142;28.494;-16.312;2023-03-01T15:35:45;25.10;67.60
33841;DHT22;20142;28.494;-16.312;2023-03-01T15:40:50;23.10;73.00
33841;DHT22;20142;28.494;-16.312;2023-03-01T15:45:58;24.60;69.10
33841;DHT22;20142;28.494;-16.312;2023-03-01T15:51:00;25.10;70.00
33841;DHT22;20142;28.494;-16.312;2023-03-01T15:56:02;24.30;70.20
33841;DHT22;20142;28.494;-16.312;2023-03-01T16:01:12;28.90;66.30
33841;DHT22;20142;28.494;-16.312;2023-03-01T16:06:15;32.90;59.00
33841;DHT22;20142;28.494;-16.312;2023-03-01T16:11:18;31.70;59.00
33841;DHT22;20142;28.494;-16.312;2023-03-01T16:16:21;30.90;59.50
33841;DHT22;20142;28.494;-16.312;2023-03-01T16:21:24;32.30;58.20
33841;DHT22;20142;28.494;-16.312;2023-03-01T16:26:26;27.70;60.60
33841;DHT22;20142;28.494;-16.312;2023-03-01T16:31:28;28.60;62.10
33841;DHT22;20142;28.494;-16.312;2023-03-01T16:36:30;29.10;60.90
33841;DHT22;20142;28.494;-16.312;2023-03-01T16:41:31;29.50;57.80
33841;DHT22;20142;28.494;-16.312;2023-03-01T16:46:33;26.20;62.50
33841;DHT22;20142;28.494;-16.312;2023-03-01T16:51:35;25.70;64.70
33841;DHT22;20142;28.494;-16.312;2023-03-01T16:56:37;23.50;67.50
33841;DHT22;20142;28.494;-16.312;2023-03-01T17:01:40;22.00;69.20
33841;DHT22;20142;28.494;-16.312;2023-03-01T17:06:42;21.60;70.50
33841;DHT22;20142;28.494;-16.312;2023-03-01T17:11:44;21.10;72.00
33841;DHT22;20142;28.494;-16.312;2023-03-01T17:16:45;20.60;73.30
33841;DHT22;20142;28.494;-16.312;2023-03-01T17:21:47;20.60;75.60
33841;DHT22;20142;28.494;-16.312;2023-03-01T17:26:49;20.30;76.10
33841;DHT22;20142;28.494;-16.312;2023-03-01T17:31:50;20.10;77.00
33841;DHT22;20142;28.494;-16.312;2023-03-01T17:36:54;20.10;77.00
33841;DHT22;20142;28.494;-16.312;2023-03-01T17:41:56;19.80;77.60
33841;DHT22;20142;28.494;-16.312;2023-03-01T17:46:58;19.80;77.90
33841;DHT22;20142;28.494;-16.312;2023-03-01T17:52:01;19.80;78.50
33841;DHT22;20142;28.494;-16.312;2023-03-01T17:57:02;19.40;79.40
33841;DHT22;20142;28.494;-16.312;2023-03-01T18:02:04;19.40;79.70
33841;DHT22;20142;28.494;-16.312;2023-03-01T18:07:06;19.10;80.20
33841;DHT22;20142;28.494;-16.312;2023-03-01T18:12:07;19.50;80.20
33841;DHT22;20142;28.494;-16.312;2023-03-01T18:17:10;19.40;80.60
33841;DHT22;20142;28.494;-16.312;2023-03-01T18:22:12;19.40;80.80
33841;DHT22;20142;28.494;-16.312;2023-03-01T18:27:14;19.50;80.90
33841;DHT22;20142;28.494;-16.312;2023-03-01T18:32:16;19.30;81.00
33841;DHT22;20142;28.494;-16.312;2023-03-01T18:37:18;19.20;81.40
33841;DHT22;20142;28.494;-16.312;2023-03-01T18:42:20;19.00;81.20
33841;DHT22;20142;28.494;-16.312;2023-03-01T18:47:22;18.80;81.90
33841;DHT22;20142;28.494;-16.312;2023-03-01T18:52:23;19.00;81.90
33841;DHT22;20142;28.494;-16.312;2023-03-01T18:57:25;18.80;81.70
33841;DHT22;20142;28.494;-16.312;2023-03-01T19:02:27;18.60;82.20
33841;DHT22;20142;28.494;-16.312;2023-03-01T19:07:30;18.30;82.30
33841;DHT22;20142;28.494;-16.312;2023-03-01T19:12:34;18.20;82.80
33841;DHT22;20142;28.494;-16.312;2023-03-01T19:17:36;17.90;83.80
33841;DHT22;20142;28.494;-16.312;2023-03-01T19:22:38;17.60;84.60
33841;DHT22;20142;28.494;-16.312;2023-03-01T19:27:39;17.50;84.90
33841;DHT22;20142;28.494;-16.312;2023-03-01T19:32:41;17.40;85.20
33841;DHT22;20142;28.494;-16.312;2023-03-01T19:37:43;17.20;86.20
33841;DHT22;20142;28.494;-16.312;2023-03-01T19:42:44;17.20;85.60
33841;DHT22;20142;28.494;-16.312;2023-03-01T19:47:46;17.10;86.40
33841;DHT22;20142;28.494;-16.312;2023-03-01T19:52:48;17.00;86.60
33841;DHT22;20142;28.494;-16.312;2023-03-01T19:57:50;17.10;87.00
33841;DHT22;20142;28.494;-16.312;2023-03-01T20:02:52;17.00;87.30
33841;DHT22;20142;28.494;-16.312;2023-03-01T20:07:54;17.10;87.20
33841;DHT22;20142;28.494;-16.312;2023-03-01T20:12:57;17.00;87.00
33841;DHT22;20142;28.494;-16.312;2023-03-01T20:17:59;17.00;87.50
33841;DHT22;20142;28.494;-16.312;2023-03-01T20:23:00;16.80;87.90
33841;DHT22;20142;28.494;-16.312;2023-03-01T20:28:02;16.80;88.10
33841;DHT22;20142;28.494;-16.312;2023-03-01T20:33:04;16.80;88.20
33841;DHT22;20142;28.494;-16.312;2023-03-01T20:38:06;16.70;88.70
33841;DHT22;20142;28.494;-16.312;2023-03-01T20:43:07;16.70;88.90
33841;DHT22;20142;28.494;-16.312;2023-03-01T20:48:09;16.60;89.10
33841;DHT22;20142;28.494;-16.312;2023-03-01T20:53:11;16.80;88.70
33841;DHT22;20142;28.494;-16.312;2023-03-01T20:58:12;17.00;88.40
33841;DHT22;20142;28.494;-16.312;2023-03-01T21:03:14;17.10;88.10
33841;DHT22;20142;28.494;-16.312;2023-03-01T21:08:16;16.90;88.30
33841;DHT22;20142;28.494;-16.312;2023-03-01T21:13:17;17.00;88.40
33841;DHT22;20142;28.494;-16.312;2023-03-01T21:18:19;16.90;88.50
33841;DHT22;20142;28.494;-16.312;2023-03-01T21:23:21;16.60;88.80
33841;DHT22;20142;28.494;-16.312;2023-03-01T21:28:23;16.60;89.30
33841;DHT22;20142;28.494;-16.312;2023-03-01T21:33:25;16.50;89.50
33841;DHT22;20142;28.494;-16.312;2023-03-01T21:38:29;16.40;89.80
33841;DHT22;20142;28.494;-16.312;2023-03-01T21:43:32;16.50;89.80
33841;DHT22;20142;28.494;-16.312;2023-03-01T21:48:34;16.40;89.70
33841;DHT22;20142;28.494;-16.312;2023-03-01T21:53:36;16.40;89.70
33841;DHT22;20142;28.494;-16.312;2023-03-01T21:58:38;16.50;89.50
33841;DHT22;20142;28.494;-16.312;2023-03-01T22:03:42;16.50;89.50
33841;DHT22;20142;28.494;-16.312;2023-03-01T22:08:49;16.60;89.30
33841;DHT22;20142;28.494;-16.312;2023-03-01T22:13:54;16.70;89.40
33841;DHT22;20142;28.494;-16.312;2023-03-01T22:18:57;16.60;89.40
33841;DHT22;20142;28.494;-16.312;2023-03-01T22:23:59;16.60;89.40
33841;DHT22;20142;28.494;-16.312;2023-03-01T22:29:06;16.60;89.60
33841;DHT22;20142;28.494;-16.312;2023-03-01T22:34:10;16.50;89.70
33841;DHT22;20142;28.494;-16.312;2023-03-01T22:39:17;16.40;89.90
33841;DHT22;20142;28.494;-16.312;2023-03-01T22:44:21;16.40;90.30
33841;DHT22;20142;28.494;-16.312;2023-03-01T22:49:23;16.30;90.50
33841;DHT22;20142;28.494;-16.312;2023-03-01T22:54:25;16.20;91.10
33841;DHT22;20142;28.494;-16.312;2023-03-01T22:59:27;16.20;91.10
33841;DHT22;20142;28.494;-16.312;2023-03-01T23:04:28;16.10;91.50
33841;DHT22;20142;28.494;-16.312;2023-03-01T23:09:32;16.10;91.40
33841;DHT22;20142;28.494;-16.312;2023-03-01T23:14:35;16.10;91.40
33841;DHT22;20142;28.494;-16.312;2023-03-01T23:19:37;16.20;91.30
33841;DHT22;20142;28.494;-16.312;2023-03-01T23:24:39;16.20;91.20
33841;DHT22;20142;28.494;-16.312;2023-03-01T23:29:41;16.20;91.20
33841;DHT22;20142;28.494;-16.312;2023-03-01T23:34:44;16.30;91.30
33841;DHT22;20142;28.494;-16.312;2023-03-01T23:39:46;16.20;91.10
33841;DHT22;20142;28.494;-16.312;2023-03-01T23:44:47;16.20;91.30
33841;DHT22;20142;28.494;-16.312;2023-03-01T23:49:49;16.20;91.20
33841;DHT22;20142;28.494;-16.312;2023-03-01T23:54:51;16.10;91.20
33841;DHT22;20142;28.494;-16.312;2023-03-01T23:59:53;16.10;91.50
